createdAt,value
2023-02-18T00:01:33.438Z,7.30
2023-02-18T00:04:01.486Z,7.40
2023-02-18T00:06:33.786Z,7.40
2023-02-18T00:09:02.480Z,7.30
2023-02-18T00:11:32.864Z,7.30
2023-02-18T00:14:02.742Z,7.20
2023-02-18T00:16:30.743Z,7.20
2023-02-18T00:19:02.014Z,7.10
2023-02-18T00:21:29.813Z,7.10
2023-02-18T00:23:57.423Z,7.00
2023-02-18T00:26:24.882Z,7.00
2023-02-18T00:28:53.091Z,6.90
2023-02-18T00:31:32.626Z,6.90
2023-02-18T00:34:04.652Z,7.00
2023-02-18T00:36:34.933Z,6.90
2023-02-18T00:39:05.449Z,6.90
2023-02-18T00:41:34.288Z,6.90
2023-02-18T00:44:01.938Z,6.90
2023-02-18T00:46:30.027Z,6.90
2023-02-18T00:48:57.566Z,6.90
2023-02-18T00:51:25.673Z,6.90
2023-02-18T00:53:53.341Z,6.90
2023-02-18T00:56:21.498Z,6.90
2023-02-18T00:58:49.821Z,6.90
2023-02-18T01:01:17.135Z,6.90
2023-02-18T01:03:45.329Z,6.90
2023-02-18T01:06:13.539Z,6.90
2023-02-18T01:08:41.960Z,7.90
2023-02-18T01:11:12.126Z,6.90
2023-02-18T01:13:40.178Z,6.90
2023-02-18T01:16:09.237Z,6.90
2023-02-18T01:18:37.516Z,6.80
2023-02-18T01:21:08.594Z,6.90
2023-02-18T01:23:41.459Z,6.90
2023-02-18T01:26:10.613Z,6.90
2023-02-18T01:28:40.823Z,6.90
2023-02-18T01:31:13.648Z,6.90
2023-02-18T01:33:41.888Z,6.80
2023-02-18T01:36:11.214Z,6.90
2023-02-18T01:38:39.101Z,6.80
2023-02-18T01:41:10.249Z,6.90
2023-02-18T01:43:38.257Z,6.80
2023-02-18T01:46:21.939Z,6.80
2023-02-18T01:49:01.427Z,6.80
2023-02-18T01:51:40.557Z,6.80
2023-02-18T01:54:15.084Z,6.80
2023-02-18T01:57:00.728Z,6.80
2023-02-18T01:59:43.236Z,6.80
2023-02-18T02:02:15.525Z,6.80
2023-02-18T02:04:42.903Z,6.80
2023-02-18T02:07:10.677Z,6.90
2023-02-18T02:09:40.720Z,6.90
2023-02-18T02:12:38.642Z,6.90
2023-02-18T02:15:24.272Z,6.90
2023-02-18T02:18:21.513Z,6.90
2023-02-18T02:20:51.446Z,6.80
2023-02-18T02:23:59.104Z,6.80
2023-02-18T02:27:00.330Z,6.80
2023-02-18T02:30:27.866Z,6.80
2023-02-18T02:33:28.566Z,6.70
2023-02-18T02:36:08.970Z,6.80
2023-02-18T02:38:55.488Z,6.80
2023-02-18T02:42:08.398Z,6.70
2023-02-18T02:44:57.628Z,6.70
2023-02-18T02:47:38.266Z,6.70
2023-02-18T02:50:42.023Z,6.70
2023-02-18T02:53:18.066Z,6.70
2023-02-18T02:55:46.298Z,6.70
2023-02-18T02:58:19.233Z,6.70
2023-02-18T03:01:20.971Z,6.60
2023-02-18T03:04:42.819Z,6.60
2023-02-18T03:07:35.172Z,6.60
2023-02-18T03:10:17.931Z,6.60
2023-02-18T03:13:10.608Z,6.60
2023-02-18T03:15:57.007Z,6.60
2023-02-18T03:19:01.667Z,6.60
2023-02-18T03:21:40.576Z,6.70
2023-02-18T03:24:30.972Z,6.70
2023-02-18T03:27:29.009Z,6.70
2023-02-18T03:30:41.800Z,6.70
2023-02-18T03:33:15.424Z,6.70
2023-02-18T03:35:45.089Z,6.70
2023-02-18T03:38:39.447Z,6.70
2023-02-18T03:41:06.826Z,6.60
2023-02-18T03:43:35.121Z,6.60
2023-02-18T03:46:03.518Z,6.20
2023-02-18T03:48:30.734Z,6.60
2023-02-18T03:50:57.842Z,6.60
2023-02-18T03:53:24.975Z,6.60
2023-02-18T03:55:52.075Z,6.60
2023-02-18T03:58:19.320Z,6.60
2023-02-18T04:00:46.469Z,6.50
2023-02-18T04:03:13.771Z,6.50
2023-02-18T04:05:40.920Z,6.50
2023-02-18T04:08:08.313Z,6.50
2023-02-18T04:10:35.489Z,6.50
2023-02-18T04:13:02.569Z,6.40
2023-02-18T04:15:29.745Z,6.40
2023-02-18T04:17:57.000Z,6.30
2023-02-18T04:20:24.303Z,6.40
2023-02-18T04:22:51.420Z,6.30
2023-02-18T04:25:18.798Z,6.30
2023-02-18T04:27:45.973Z,6.30
2023-02-18T04:30:14.042Z,6.30
2023-02-18T04:32:41.294Z,6.30
2023-02-18T04:35:08.609Z,6.20
2023-02-18T04:37:35.668Z,6.20
2023-02-18T04:40:03.126Z,6.20
2023-02-18T04:42:30.305Z,6.20
2023-02-18T04:44:57.423Z,6.20
2023-02-18T04:47:24.913Z,6.10
2023-02-18T04:49:51.948Z,6.10
2023-02-18T04:52:19.606Z,6.10
2023-02-18T04:54:46.673Z,6.20
2023-02-18T04:57:13.757Z,6.10
2023-02-18T04:59:41.475Z,6.10
2023-02-18T05:02:08.710Z,6.10
2023-02-18T05:04:35.894Z,6.10
2023-02-18T05:07:03.243Z,6.20
2023-02-18T05:09:30.586Z,6.20
2023-02-18T05:11:57.743Z,6.20
2023-02-18T05:14:25.189Z,6.20
2023-02-18T05:16:52.596Z,6.20
2023-02-18T05:19:19.963Z,6.20
2023-02-18T05:21:47.336Z,6.20
2023-02-18T05:24:14.767Z,6.20
2023-02-18T05:26:42.127Z,6.20
2023-02-18T05:29:09.498Z,6.20
2023-02-18T05:31:38.547Z,6.20
2023-02-18T05:34:06.067Z,6.20
2023-02-18T05:36:33.309Z,6.20
2023-02-18T05:39:00.783Z,6.20
2023-02-18T05:41:28.152Z,6.20
2023-02-18T05:44:16.597Z,6.20
2023-02-18T05:46:44.302Z,6.20
2023-02-18T05:49:12.176Z,6.20
2023-02-18T05:51:42.483Z,6.20
2023-02-18T05:54:09.875Z,6.20
2023-02-18T05:56:50.989Z,6.20
2023-02-18T05:59:27.528Z,6.20
2023-02-18T06:01:55.162Z,6.20
2023-02-18T06:04:22.991Z,6.10
2023-02-18T06:06:50.580Z,6.10
2023-02-18T06:09:18.031Z,6.10
2023-02-18T06:11:45.534Z,6.10
2023-02-18T06:14:12.956Z,6.10
2023-02-18T06:16:40.409Z,6.10
2023-02-18T06:19:08.070Z,6.00
2023-02-18T06:21:35.668Z,6.10
2023-02-18T06:24:03.227Z,6.10
2023-02-18T06:26:30.987Z,6.10
2023-02-18T06:28:58.467Z,6.10
2023-02-18T06:31:26.037Z,6.10
2023-02-18T06:33:53.545Z,6.10
2023-02-18T06:36:21.230Z,5.00
2023-02-18T06:38:48.601Z,6.10
2023-02-18T06:41:16.213Z,6.10
2023-02-18T06:43:43.700Z,6.10
2023-02-18T06:46:11.407Z,6.10
2023-02-18T06:48:39.179Z,6.10
2023-02-18T06:51:06.841Z,6.10
2023-02-18T06:53:34.356Z,6.10
2023-02-18T06:56:01.685Z,6.20
2023-02-18T06:58:29.050Z,6.20
2023-02-18T07:00:56.392Z,6.20
2023-02-18T07:03:23.799Z,6.20
2023-02-18T07:05:51.169Z,6.20
2023-02-18T07:08:18.869Z,6.20
2023-02-18T07:10:46.938Z,6.20
2023-02-18T07:13:14.594Z,6.20
2023-02-18T07:15:41.984Z,6.20
2023-02-18T07:18:09.519Z,6.30
2023-02-18T07:20:36.827Z,6.30
2023-02-18T07:23:04.223Z,6.30
2023-02-18T07:25:31.572Z,6.30
2023-02-18T07:27:59.101Z,6.30
2023-02-18T07:30:26.468Z,6.30
2023-02-18T07:32:53.888Z,6.40
2023-02-18T07:35:21.641Z,6.40
2023-02-18T07:37:50.464Z,6.40
2023-02-18T07:40:21.859Z,6.50
2023-02-18T07:42:49.584Z,6.50
2023-02-18T07:45:17.146Z,6.50
2023-02-18T07:47:45.621Z,6.50
2023-02-18T07:50:13.128Z,6.50
2023-02-18T07:52:40.857Z,6.60
2023-02-18T07:55:08.866Z,6.60
2023-02-18T07:57:56.157Z,6.60
2023-02-18T08:00:24.311Z,6.70
2023-02-18T08:02:51.704Z,6.60
2023-02-18T08:05:19.098Z,6.70
2023-02-18T08:07:46.555Z,6.70
2023-02-18T08:10:13.943Z,6.70
2023-02-18T08:12:41.329Z,6.30
2023-02-18T08:15:09.538Z,6.70
2023-02-18T08:17:37.215Z,6.80
2023-02-18T08:20:05.598Z,6.80
2023-02-18T08:22:32.934Z,6.80
2023-02-18T08:25:00.433Z,6.80
2023-02-18T08:27:27.824Z,6.80
2023-02-18T08:29:56.054Z,6.80
2023-02-18T08:32:27.614Z,6.80
2023-02-18T08:34:55.703Z,6.80
2023-02-18T08:37:23.956Z,6.80
2023-02-18T08:39:51.253Z,6.80
2023-02-18T08:42:18.572Z,6.80
2023-02-18T08:44:46.036Z,6.80
2023-02-18T08:48:13.762Z,6.90
2023-02-18T08:50:00.875Z,6.90
2023-02-18T08:52:28.402Z,6.90
2023-02-18T08:54:55.782Z,7.00
2023-02-18T08:57:23.095Z,7.00
2023-02-18T08:59:50.559Z,7.00
2023-02-18T09:02:17.854Z,7.00
2023-02-18T09:04:45.450Z,7.00
2023-02-18T09:07:12.810Z,7.00
2023-02-18T09:09:40.378Z,6.90
2023-02-18T09:12:08.671Z,6.90
2023-02-18T09:14:36.089Z,7.00
2023-02-18T09:17:03.647Z,7.00
2023-02-18T09:19:31.004Z,6.90
2023-02-18T09:22:00.661Z,6.90
2023-02-18T09:24:28.596Z,6.80
2023-02-18T09:26:56.059Z,6.80
2023-02-18T09:29:23.516Z,6.80
2023-02-18T09:31:51.012Z,6.70
2023-02-18T09:34:18.498Z,6.60
2023-02-18T09:36:45.859Z,6.60
2023-02-18T09:39:14.114Z,6.60
2023-02-18T09:41:52.203Z,6.50
2023-02-18T09:44:35.488Z,6.50
2023-02-18T09:47:07.220Z,6.30
2023-02-18T09:49:40.805Z,6.20
2023-02-18T09:52:32.119Z,6.10
2023-02-18T09:54:59.910Z,6.20
2023-02-18T09:57:48.971Z,6.10
2023-02-18T10:00:30.661Z,6.10
2023-02-18T10:03:14.061Z,6.00
2023-02-18T10:05:50.360Z,6.00
2023-02-18T10:08:27.659Z,6.00
2023-02-18T10:10:55.923Z,6.00
2023-02-18T10:13:28.437Z,6.00
2023-02-18T10:15:56.562Z,6.00
2023-02-18T10:21:10.973Z,5.90
2023-02-18T10:24:08.074Z,5.80
2023-02-18T10:26:38.083Z,5.80
2023-02-18T10:29:18.780Z,5.70
2023-02-18T10:32:02.116Z,5.70
2023-02-18T10:35:00.608Z,5.60
2023-02-18T10:37:39.787Z,5.60
2023-02-18T10:40:14.746Z,5.60
2023-02-18T10:43:06.848Z,5.50
2023-02-18T10:46:13.830Z,5.50
2023-02-18T10:49:08.362Z,5.50
2023-02-18T10:51:40.496Z,5.50
2023-02-18T10:54:08.302Z,5.50
2023-02-18T10:56:48.574Z,5.50
2023-02-18T10:59:32.291Z,5.50
2023-02-18T11:02:18.025Z,5.50
2023-02-18T11:04:46.819Z,5.50
2023-02-18T11:07:24.039Z,5.50
2023-02-18T11:10:19.034Z,5.40
2023-02-18T11:12:58.617Z,5.30
2023-02-18T11:15:27.850Z,5.30
2023-02-18T11:18:00.148Z,5.30
2023-02-18T11:20:31.951Z,5.40
2023-02-18T11:23:18.882Z,5.40
2023-02-18T11:26:12.931Z,5.40
2023-02-18T11:28:45.446Z,5.40
2023-02-18T11:31:41.154Z,5.40
2023-02-18T11:34:21.207Z,5.50
2023-02-18T11:36:50.809Z,5.40
2023-02-18T11:39:28.473Z,5.40
2023-02-18T11:42:03.734Z,5.30
2023-02-18T11:44:43.355Z,5.30
2023-02-18T11:47:14.393Z,5.30
2023-02-18T11:50:08.571Z,5.30
2023-02-18T11:52:42.522Z,5.20
2023-02-18T11:55:31.027Z,5.30
2023-02-18T11:58:02.804Z,5.10
2023-02-18T12:00:47.192Z,5.10
2023-02-18T12:03:32.188Z,5.10
2023-02-18T12:06:04.076Z,5.10
2023-02-18T12:08:43.660Z,5.00
2023-02-18T12:11:27.171Z,5.00
2023-02-18T12:13:58.015Z,5.00
2023-02-18T12:16:50.635Z,5.00
2023-02-18T12:19:48.122Z,5.00
2023-02-18T12:22:39.643Z,5.20
2023-02-18T12:25:24.024Z,5.40
2023-02-18T12:28:26.618Z,5.50
2023-02-18T12:31:28.070Z,5.50
2023-02-18T12:34:17.240Z,5.50
2023-02-18T12:37:09.624Z,5.50
2023-02-18T12:40:01.559Z,5.40
2023-02-18T12:42:48.390Z,5.40
2023-02-18T12:45:36.865Z,5.40
2023-02-18T12:48:22.326Z,5.30
2023-02-18T12:51:54.031Z,5.30
2023-02-18T12:54:43.632Z,5.20
2023-02-18T12:57:46.221Z,5.10
2023-02-18T13:00:45.650Z,5.10
2023-02-18T13:03:40.023Z,5.10
2023-02-18T13:06:52.340Z,5.10
2023-02-18T13:09:53.296Z,5.10
2023-02-18T13:12:39.565Z,5.00
2023-02-18T13:15:37.842Z,5.10
2023-02-18T13:18:12.044Z,5.10
2023-02-18T13:21:14.276Z,5.10
2023-02-18T13:23:57.586Z,5.00
2023-02-18T13:26:26.645Z,5.00
2023-02-18T13:29:26.522Z,4.90
2023-02-18T13:32:22.565Z,4.90
2023-02-18T13:35:18.375Z,4.80
2023-02-18T13:38:34.885Z,4.80
2023-02-18T13:41:03.207Z,4.90
2023-02-18T13:43:36.422Z,5.00
2023-02-18T13:46:21.983Z,5.00
2023-02-18T13:49:01.298Z,5.00
2023-02-18T13:51:40.626Z,5.00
2023-02-18T13:54:17.069Z,5.00
2023-02-18T13:56:58.015Z,5.00
2023-02-18T13:59:44.002Z,5.10
2023-02-18T14:02:20.557Z,5.10
2023-02-18T14:05:07.072Z,5.10
2023-02-18T14:07:39.148Z,4.90
2023-02-18T14:10:18.489Z,4.90
2023-02-18T14:12:58.127Z,4.80
2023-02-18T14:15:25.430Z,4.80
2023-02-18T14:18:14.904Z,4.70
2023-02-18T14:20:51.218Z,4.70
2023-02-18T14:23:18.612Z,4.70
2023-02-18T14:26:15.044Z,4.50
2023-02-18T14:28:48.491Z,4.50
2023-02-18T14:31:15.790Z,4.50
2023-02-18T14:34:04.900Z,4.30
2023-02-18T14:36:42.849Z,4.30
2023-02-18T14:39:48.413Z,4.30
2023-02-18T14:42:45.825Z,4.10
2023-02-18T14:45:54.804Z,4.20
2023-02-18T14:49:14.656Z,4.20
2023-02-18T14:51:43.332Z,4.30
2023-02-18T14:54:18.858Z,4.20
2023-02-18T14:57:07.744Z,4.10
2023-02-18T14:59:40.943Z,4.00
2023-02-18T15:02:30.994Z,4.00
2023-02-18T15:05:20.684Z,3.90
2023-02-18T15:08:17.687Z,3.90
2023-02-18T15:11:03.765Z,3.90
2023-02-18T15:13:37.720Z,3.90
2023-02-18T15:16:10.423Z,3.90
2023-02-18T15:18:44.493Z,4.00
2023-02-18T15:21:41.404Z,4.10
2023-02-18T15:24:38.897Z,4.10
2023-02-18T15:27:15.857Z,4.10
2023-02-18T15:29:43.321Z,4.10
2023-02-18T15:32:32.464Z,4.20
2023-02-18T15:35:03.084Z,4.20
2023-02-18T15:37:31.678Z,4.20
2023-02-18T15:39:59.233Z,4.20
2023-02-18T15:42:36.634Z,4.20
2023-02-18T15:45:13.488Z,4.20
2023-02-18T15:47:48.632Z,4.20
2023-02-18T15:50:27.024Z,4.10
2023-02-18T15:52:58.441Z,4.20
2023-02-18T15:55:32.821Z,4.10
2023-02-18T15:58:04.793Z,4.20
2023-02-18T16:00:54.833Z,4.10
2023-02-18T16:03:28.026Z,4.10
2023-02-18T16:06:27.724Z,4.00
2023-02-18T16:09:09.225Z,4.00
2023-02-18T16:11:41.732Z,3.90
2023-02-18T16:14:53.843Z,4.00
2023-02-18T16:17:23.928Z,3.90
2023-02-18T16:20:16.528Z,3.90
2023-02-18T16:22:47.878Z,3.80
2023-02-18T16:25:21.561Z,3.80
2023-02-18T16:27:57.411Z,3.80
2023-02-18T16:30:28.903Z,3.70
2023-02-18T16:32:58.082Z,3.70
2023-02-18T16:35:32.668Z,3.60
2023-02-18T16:38:05.451Z,3.60
2023-02-18T16:40:35.245Z,3.50
2023-02-18T16:43:21.512Z,3.50
2023-02-18T16:45:53.045Z,3.50
2023-02-18T16:48:32.369Z,3.40
2023-02-18T16:51:17.375Z,3.30
2023-02-18T16:53:45.338Z,3.30
2023-02-18T16:56:28.901Z,3.20
2023-02-18T16:58:56.376Z,3.20
2023-02-18T17:01:29.962Z,3.20
2023-02-18T17:03:59.423Z,3.10
2023-02-18T17:06:28.119Z,3.10
2023-02-18T17:08:55.941Z,3.10
2023-02-18T17:11:30.949Z,3.10
2023-02-18T17:13:59.450Z,3.10
2023-02-18T17:16:28.103Z,3.10
2023-02-18T17:18:55.193Z,3.10
2023-02-18T17:21:25.342Z,3.00
2023-02-18T17:23:52.853Z,3.00
2023-02-18T17:26:28.583Z,3.00
2023-02-18T17:28:58.066Z,3.00
2023-02-18T17:31:32.097Z,3.00
2023-02-18T17:34:02.721Z,3.00
2023-02-18T17:36:29.880Z,3.00
2023-02-18T17:38:58.604Z,3.00
2023-02-18T17:41:26.457Z,3.00
2023-02-18T17:43:53.782Z,3.00
2023-02-18T17:46:21.341Z,2.90
2023-02-18T17:48:48.662Z,3.00
2023-02-18T17:51:29.641Z,2.90
2023-02-18T17:53:57.132Z,2.90
2023-02-18T17:56:24.322Z,3.00
2023-02-18T17:58:51.442Z,3.00
2023-02-18T18:01:20.850Z,3.00
2023-02-18T18:03:48.022Z,3.00
2023-02-18T18:06:18.195Z,3.00
2023-02-18T18:08:46.519Z,3.00
2023-02-18T18:11:22.409Z,3.00
2023-02-18T18:13:50.653Z,3.00
2023-02-18T18:16:18.712Z,3.00
2023-02-18T18:18:46.063Z,3.00
2023-02-18T18:21:26.174Z,3.00
2023-02-18T18:23:53.261Z,3.10
2023-02-18T18:26:20.514Z,3.10
2023-02-18T18:28:48.546Z,3.00
2023-02-18T18:31:18.768Z,3.10
2023-02-18T18:33:53.176Z,3.00
2023-02-18T18:36:23.923Z,3.10
2023-02-18T18:38:51.591Z,3.10
2023-02-18T18:41:21.868Z,3.10
2023-02-18T18:43:49.930Z,3.10
2023-02-18T18:46:17.683Z,3.10
2023-02-18T18:48:44.965Z,3.10
2023-02-18T18:51:19.012Z,3.20
2023-02-18T18:53:46.150Z,3.20
2023-02-18T18:56:14.013Z,3.10
2023-02-18T18:58:41.085Z,3.20
2023-02-18T19:01:17.272Z,3.20
2023-02-18T19:03:46.642Z,3.10
2023-02-18T19:06:19.454Z,3.10
2023-02-18T19:08:47.881Z,3.20
2023-02-18T19:11:16.584Z,3.10
2023-02-18T19:13:45.198Z,3.10
2023-02-18T19:16:36.193Z,3.10
2023-02-18T19:19:03.438Z,3.10
2023-02-18T19:21:31.709Z,3.10
2023-02-18T19:23:59.930Z,3.10
2023-02-18T19:26:28.066Z,3.10
2023-02-18T19:28:55.408Z,3.10
2023-02-18T19:31:24.338Z,3.00
2023-02-18T19:33:52.720Z,3.10
2023-02-18T19:36:19.939Z,3.10
2023-02-18T19:38:47.106Z,3.00
2023-02-18T19:41:16.943Z,3.00
2023-02-18T19:43:46.575Z,3.10
2023-02-18T19:46:17.394Z,3.10
2023-02-18T19:48:52.315Z,3.10
2023-02-18T19:51:21.268Z,3.10
2023-02-18T19:53:48.440Z,3.00
2023-02-18T19:56:15.578Z,2.60
2023-02-18T19:58:43.108Z,3.10
2023-02-18T20:01:15.249Z,3.00
2023-02-18T20:03:43.589Z,3.10
2023-02-18T20:06:20.870Z,3.10
2023-02-18T20:08:48.312Z,3.10
2023-02-18T20:11:15.565Z,3.00
2023-02-18T20:13:42.979Z,3.00
2023-02-18T20:16:10.603Z,3.10
2023-02-18T20:18:37.773Z,3.00
2023-02-18T20:21:05.208Z,3.00
2023-02-18T20:23:32.527Z,3.00
2023-02-18T20:26:02.695Z,3.00
2023-02-18T20:28:29.821Z,3.10
2023-02-18T20:31:12.786Z,3.10
2023-02-18T20:33:42.350Z,3.10
2023-02-18T20:36:13.725Z,3.10
2023-02-18T20:38:40.944Z,3.10
2023-02-18T20:41:12.337Z,3.10
2023-02-18T20:43:39.641Z,3.20
2023-02-18T20:46:11.859Z,3.20
2023-02-18T20:48:39.419Z,3.20
2023-02-18T20:51:10.018Z,3.20
2023-02-18T20:53:39.994Z,3.30
2023-02-18T20:56:09.034Z,3.30
2023-02-18T20:58:36.515Z,3.30
2023-02-18T21:01:08.033Z,3.30
2023-02-18T21:03:36.305Z,3.30
2023-02-18T21:06:08.151Z,3.30
2023-02-18T21:08:40.370Z,3.40
2023-02-18T21:11:15.151Z,3.40
2023-02-18T21:13:42.921Z,3.40
2023-02-18T21:16:10.606Z,3.40
2023-02-18T21:18:37.856Z,3.40
2023-02-18T21:21:08.579Z,3.40
2023-02-18T21:23:37.490Z,3.30
2023-02-18T21:26:12.197Z,3.40
2023-02-18T21:28:40.344Z,3.40
2023-02-18T21:31:28.687Z,3.40
2023-02-18T21:33:56.043Z,3.50
2023-02-18T21:36:23.764Z,3.40
2023-02-18T21:39:00.014Z,3.40
2023-02-18T21:41:29.310Z,3.40
2023-02-18T21:43:59.877Z,3.40
2023-02-18T21:46:32.777Z,3.40
2023-02-18T21:49:03.401Z,3.40
2023-02-18T21:51:56.565Z,3.40
2023-02-18T21:54:33.616Z,3.40
2023-02-18T21:57:06.578Z,3.40
2023-02-18T21:59:34.913Z,3.40
2023-02-18T22:02:04.501Z,3.40
2023-02-18T22:04:33.832Z,3.40
2023-02-18T22:07:02.428Z,3.40
2023-02-18T22:09:29.903Z,3.40
2023-02-18T22:11:56.957Z,3.40
2023-02-18T22:14:24.170Z,3.40
2023-02-18T22:16:51.394Z,3.40
2023-02-18T22:19:18.600Z,3.40
2023-02-18T22:21:46.109Z,3.40
2023-02-18T22:24:14.927Z,3.40
2023-02-18T22:26:43.857Z,3.40
2023-02-18T22:29:17.409Z,3.40
2023-02-18T22:31:47.045Z,3.40
2023-02-18T22:34:14.219Z,3.40
2023-02-18T22:36:41.321Z,3.40
2023-02-18T22:39:09.110Z,3.40
2023-02-18T22:41:36.694Z,3.40
2023-02-18T22:44:07.666Z,3.40
2023-02-18T22:46:36.556Z,3.40
2023-02-18T22:49:05.930Z,3.40
2023-02-18T22:51:39.605Z,3.40
2023-02-18T22:54:11.598Z,3.40
2023-02-18T22:56:39.006Z,3.40
2023-02-18T22:59:06.430Z,3.40
2023-02-18T23:01:36.761Z,3.40
2023-02-18T23:04:13.969Z,3.40
2023-02-18T23:06:43.656Z,3.40
2023-02-18T23:09:17.372Z,3.50
2023-02-18T23:11:45.584Z,3.40
2023-02-18T23:14:18.235Z,3.40
2023-02-18T23:17:16.193Z,3.40
2023-02-18T23:19:57.792Z,3.50
2023-02-18T23:22:33.642Z,3.50
2023-02-18T23:25:02.208Z,3.50
2023-02-18T23:27:30.365Z,3.40
2023-02-18T23:29:57.828Z,3.30
2023-02-18T23:32:27.810Z,3.30
2023-02-18T23:34:57.044Z,3.30
2023-02-18T23:37:44.405Z,3.40
2023-02-18T23:40:13.804Z,3.30
2023-02-18T23:42:40.948Z,3.30
2023-02-18T23:45:09.270Z,3.30
2023-02-18T23:47:37.158Z,3.40
2023-02-18T23:50:05.031Z,3.30
2023-02-18T23:52:32.364Z,3.30
2023-02-18T23:54:59.484Z,3.30
2023-02-18T23:57:32.175Z,3.30
